Airfield :
LOGIN :

Register | Disclaimer

   EN    FR    IT 

 










Legend :    VFR   Marginal VFR   IFR   Intensive IFR   Very Intensive IFR
Visi :
Ceiling :
>= 8 km
>= 3000ft
5 to 8 km
1000 to 3000 ft
1500m to 5 km
500 to 1000 ft
800 to 1500m
200 to 500 ft
< 800m
< 200 ft
Symbols :   Thunderstorms  Fog  Heavy snow  Heavy precipitations  Wind > 20 kt
SIGMETs :     Misc.  Thunderstorms  Icing  Turbulence  Mountain Waves  Volcanic Ashes







- Airport Elevation : 526 ft
- IATA code : LTN
- Download approach charts


EGGW - London Luton

CURRENT METAR :
  • 301620Z AUTO 13010KT 9999 NCD 14/02 Q0998

EXPIRED METARs :
  • 301550Z AUTO 14012KT 9999 NCD 14/03 Q0999
  • 301520Z AUTO 14015KT 9999 NCD 15/03 Q0999
  • 301450Z AUTO 11013KT 9999 NCD 16/07 Q0999
  • 301420Z AUTO 11010KT 9999 NCD 14/06 Q0999
  • 301350Z AUTO 11012KT 9999 NCD 13/06 Q1000

TAF TAF EGGW
Valid from the 30 at 12:00 until the 01 at 12:00 UTC


301100Z 3012/0112 11012KT CAVOK
TEMPO 3012/3016 12017G27KT
BECMG 3016/3019 BKN048
TEMPO 3016/0103 8000 RA
BECMG 3021/3023 17008KT BKN012
PROB40
TEMPO 3022/0102 3000 RADZ BR BKN006
BECMG 0102/0105 FEW010 SCT025
BECMG 0107/0110 15015G25KT
TEMPO 0108/0112 7000 SHRA
ATIS : +44 1582 395 204
No reported NOTAMs for that airfield.



MET'MAP, your aeronautical weather chart ! - Copyright ORBIFLY December 2007 - Disclaimer

ORBIFLY MET'MAP TEAM :

Programming & Development : Alexandra Zaïnal
Concept & Development : Baudouin d'Aumeries
Co-Development & Prog : Marc-Olivier Méhu
Technical & hardware support : Manuel Goepfert

Contact : metmap@orbifly.com




SOURCES & CREDITS :

   NOAA